Time;durP1;ratioP1;P1;durP2;ratioP2;P2;SDS_P1;SDS_P2;PMS_P1;PMS_P2;Temp;Humidity;BMP_temperature;BMP_pressure;BME280_temperature;BME280_humidity;BME280_pressure;Samples;Min_cycle;Max_cycle;Signal;HPM_P1;HPM_P2
2019/10/23 00:02:19;;;;;;;83.4;53.4;;;;;;;12.77;99.77246;964.3275;;;;
2019/10/23 00:04:44;;;;;;;82.5;54.6;;;;;;;12.57;100;964.274;;;;
2019/10/23 00:07:09;;;;;;;80.8;52.8;;;;;;;12.66;100;964.1752;;;;
2019/10/23 00:09:34;;;;;;;84.4;52.9;;;;;;;12.65;100;964.134;;;;
2019/10/23 00:11:59;;;;;;;78;51.8;;;;;;;12.7;99.92871;964.1979;;;;
2019/10/23 00:14:25;;;;;;;79.2;52;;;;;;;12.64;100;964.2386;;;;
2019/10/23 00:16:50;;;;;;;83.4;54.5;;;;;;;12.67;99.87695;964.1589;;;;
2019/10/23 00:19:15;;;;;;;89.8;56.7;;;;;;;12.58;100;964.1417;;;;
2019/10/23 00:21:40;;;;;;;87.5;55.6;;;;;;;12.62;100;964.0986;;;;
2019/10/23 00:24:05;;;;;;;91.2;57.7;;;;;;;12.61;100;964.0859;;;;
2019/10/23 00:26:30;;;;;;;84.9;55.2;;;;;;;12.67;100;964.136;;;;
2019/10/23 00:28:55;;;;;;;95.1;60.1;;;;;;;12.56;100;964.028;;;;
2019/10/23 00:31:21;;;;;;;98.4;61.4;;;;;;;12.57;100;964.0215;;;;
2019/10/23 00:33:46;;;;;;;101.2;61.1;;;;;;;12.47;100;964.03;;;;
2019/10/23 00:36:11;;;;;;;104.5;61.8;;;;;;;12.4;100;963.9397;;;;
2019/10/23 00:38:37;;;;;;;102.2;62.9;;;;;;;12.51;100;963.8527;;;;
2019/10/23 00:41:02;;;;;;;106.7;62.4;;;;;;;12.48;100;963.8326;;;;
2019/10/23 00:43:27;;;;;;;97.4;59.3;;;;;;;12.5;100;963.8392;;;;
2019/10/23 00:45:52;;;;;;;95.5;60.4;;;;;;;12.74;100;963.8739;;;;
2019/10/23 00:48:17;;;;;;;97.3;59.6;;;;;;;12.7;100;963.8635;;;;
2019/10/23 00:50:42;;;;;;;97.8;61.8;;;;;;;12.75;100;963.8621;;;;
2019/10/23 00:53:08;;;;;;;100.3;61.4;;;;;;;12.66;100;963.791;;;;
2019/10/23 00:55:33;;;;;;;107;63.6;;;;;;;12.51;100;963.7563;;;;
2019/10/23 00:57:58;;;;;;;110.2;64.8;;;;;;;12.48;100;963.7827;;;;
2019/10/23 01:00:24;;;;;;;114.4;65.3;;;;;;;12.42;100;963.7522;;;;
2019/10/23 01:02:49;;;;;;;111.9;63.7;;;;;;;12.41;100;963.7003;;;;
2019/10/23 01:05:16;;;;;;;106.8;61;;;;;;;12.5;100;963.6529;;;;
2019/10/23 01:07:40;;;;;;;102.7;57.3;;;;;;;12.56;100;963.5804;;;;
2019/10/23 01:10:05;;;;;;;106.4;57.6;;;;;;;12.61;100;963.5798;;;;
2019/10/23 01:12:30;;;;;;;119.6;59.2;;;;;;;12.42;100;963.5119;;;;
2019/10/23 01:14:55;;;;;;;118.3;59.3;;;;;;;12.48;100;963.4295;;;;
2019/10/23 01:17:20;;;;;;;107.9;57.2;;;;;;;12.55;100;963.4144;;;;
2019/10/23 01:19:45;;;;;;;112.2;58.5;;;;;;;12.49;100;963.3986;;;;
2019/10/23 01:22:11;;;;;;;115.1;58.9;;;;;;;12.52;100;963.4458;;;;
2019/10/23 01:24:36;;;;;;;129.6;61.2;;;;;;;12.35;100;963.3984;;;;
2019/10/23 01:27:01;;;;;;;121.7;61.9;;;;;;;12.42;100;963.377;;;;
2019/10/23 01:29:26;;;;;;;122.7;60.1;;;;;;;12.43;100;963.2953;;;;
2019/10/23 01:31:51;;;;;;;134.9;63.8;;;;;;;12.19;100;963.3466;;;;
2019/10/23 01:34:16;;;;;;;130.5;62;;;;;;;12.25;100;963.3329;;;;
2019/10/23 01:36:41;;;;;;;127.6;63.1;;;;;;;12.38;100;963.2633;;;;
2019/10/23 01:39:07;;;;;;;128;61.8;;;;;;;12.33;100;963.2389;;;;
2019/10/23 01:41:32;;;;;;;132.2;63.4;;;;;;;12.23;100;963.1927;;;;
2019/10/23 01:43:57;;;;;;;128.7;64.2;;;;;;;12.2;100;963.144;;;;
2019/10/23 01:46:22;;;;;;;125;62.2;;;;;;;12.29;100;963.1154;;;;
2019/10/23 01:48:47;;;;;;;124.6;62.8;;;;;;;12.29;100;963.0614;;;;
2019/10/23 01:51:12;;;;;;;118.1;60.5;;;;;;;12.34;100;963.0338;;;;
2019/10/23 01:53:38;;;;;;;98.9;53.3;;;;;;;12.29;100;963.0356;;;;
2019/10/23 01:56:03;;;;;;;87.3;50.2;;;;;;;12.32;100;963.0002;;;;
2019/10/23 01:58:28;;;;;;;73.6;45.1;;;;;;;12.42;100;963.0541;;;;
2019/10/23 02:00:53;;;;;;;82.3;46.7;;;;;;;12.19;100;963.0156;;;;
2019/10/23 02:03:18;;;;;;;76;45.9;;;;;;;12.38;100;963.0417;;;;
2019/10/23 02:05:44;;;;;;;71.3;44.3;;;;;;;12.25;100;962.9546;;;;
2019/10/23 02:08:09;;;;;;;65.1;43.2;;;;;;;12.23;100;962.9378;;;;
2019/10/23 02:10:34;;;;;;;59.7;39.9;;;;;;;12.34;100;962.8745;;;;
2019/10/23 02:12:59;;;;;;;61.7;40.3;;;;;;;12.16;100;962.8173;;;;
2019/10/23 02:15:25;;;;;;;64.2;42.3;;;;;;;12.05;100;962.7556;;;;
2019/10/23 02:17:50;;;;;;;62.9;42.5;;;;;;;12.05;100;962.7271;;;;
2019/10/23 02:20:15;;;;;;;55.3;39.4;;;;;;;12.34;100;962.7658;;;;
2019/10/23 02:22:40;;;;;;;57.3;39.9;;;;;;;12.2;100;962.7831;;;;
2019/10/23 02:25:05;;;;;;;57.6;40;;;;;;;12.34;100;962.7698;;;;
2019/10/23 02:27:30;;;;;;;56.4;39.6;;;;;;;12.31;100;962.7269;;;;
2019/10/23 02:29:56;;;;;;;60.1;40.5;;;;;;;12.36;100;962.7597;;;;
2019/10/23 02:32:21;;;;;;;61;40.9;;;;;;;12.28;100;962.7762;;;;
2019/10/23 02:34:46;;;;;;;64.4;42.1;;;;;;;12.27;100;962.7565;;;;
2019/10/23 02:37:11;;;;;;;65.7;43.4;;;;;;;12.29;100;962.7313;;;;
2019/10/23 02:39:37;;;;;;;71.5;45;;;;;;;12.19;100;962.6863;;;;
2019/10/23 02:42:02;;;;;;;72.3;45.6;;;;;;;12.22;100;962.6297;;;;
2019/10/23 02:44:27;;;;;;;66.3;42.5;;;;;;;12.38;100;962.5591;;;;
2019/10/23 02:46:52;;;;;;;75.3;44.6;;;;;;;12.25;100;962.5183;;;;
2019/10/23 02:49:17;;;;;;;77.2;46.2;;;;;;;12.14;100;962.5578;;;;
2019/10/23 02:51:42;;;;;;;72.5;45.4;;;;;;;12.15;100;962.4913;;;;
2019/10/23 02:54:07;;;;;;;76.8;47.1;;;;;;;12.2;100;962.4683;;;;
2019/10/23 02:56:32;;;;;;;74.4;45.6;;;;;;;12.15;100;962.403;;;;
2019/10/23 02:58:57;;;;;;;65.8;41.8;;;;;;;12.21;100;962.4048;;;;
2019/10/23 03:01:22;;;;;;;65.4;42.6;;;;;;;12.35;100;962.4356;;;;
2019/10/23 03:03:47;;;;;;;65.9;42.7;;;;;;;12.3;100;962.4203;;;;
2019/10/23 03:06:13;;;;;;;65.1;41.4;;;;;;;12.32;100;962.3518;;;;
2019/10/23 03:08:38;;;;;;;63.9;42.6;;;;;;;12.38;100;962.3806;;;;
2019/10/23 03:11:03;;;;;;;66.7;43;;;;;;;12.26;100;962.3181;;;;
2019/10/23 03:13:28;;;;;;;61.5;40.9;;;;;;;12.19;100;962.4233;;;;
2019/10/23 03:15:53;;;;;;;64.6;42.3;;;;;;;12.21;100;962.4514;;;;
2019/10/23 03:18:18;;;;;;;59.8;40.5;;;;;;;12.27;100;962.3528;;;;
2019/10/23 03:20:43;;;;;;;58.1;39;;;;;;;12.22;100;962.3543;;;;
2019/10/23 03:23:08;;;;;;;52.5;37.2;;;;;;;12.37;100;962.4051;;;;
2019/10/23 03:25:33;;;;;;;52.8;36.8;;;;;;;12.31;100;962.3894;;;;
2019/10/23 03:27:58;;;;;;;52.9;37.5;;;;;;;12.33;100;962.3546;;;;
2019/10/23 03:30:23;;;;;;;54.5;38;;;;;;;12.35;100;962.327;;;;
2019/10/23 03:32:49;;;;;;;55.3;38.4;;;;;;;12.31;100;962.2586;;;;
2019/10/23 03:35:14;;;;;;;57.7;38.9;;;;;;;12.09;100;962.2386;;;;
2019/10/23 03:37:39;;;;;;;57.6;39.2;;;;;;;11.99;100;962.2305;;;;
2019/10/23 03:40:04;;;;;;;55.9;38.9;;;;;;;12.03;100;962.2466;;;;
2019/10/23 03:42:29;;;;;;;58;37.9;;;;;;;11.98;100;962.2472;;;;
2019/10/23 03:44:54;;;;;;;50.9;35.8;;;;;;;11.98;100;962.3077;;;;
2019/10/23 03:47:19;;;;;;;50.8;34.3;;;;;;;12.06;100;962.3303;;;;
2019/10/23 03:49:44;;;;;;;45.7;33.2;;;;;;;12.19;100;962.3423;;;;
2019/10/23 03:52:09;;;;;;;45.8;33.4;;;;;;;12.14;100;962.3406;;;;
2019/10/23 03:54:35;;;;;;;43.8;31.6;;;;;;;12.13;100;962.3862;;;;
2019/10/23 03:57:00;;;;;;;38.1;29.9;;;;;;;12.29;100;962.3938;;;;
2019/10/23 03:59:25;;;;;;;41.9;30.8;;;;;;;12.21;100;962.4286;;;;
2019/10/23 04:02:28;;;;;;;41.5;31.3;;;;;;;12.22;100;962.3298;;;;
2019/10/23 04:04:54;;;;;;;40;30.2;;;;;;;12.28;100;962.3373;;;;
2019/10/23 04:07:19;;;;;;;36.6;28.6;;;;;;;12.32;100;962.378;;;;
2019/10/23 04:09:44;;;;;;;37;28.8;;;;;;;12.35;100;962.2985;;;;
2019/10/23 04:12:09;;;;;;;35.4;28.1;;;;;;;12.33;100;962.2623;;;;
2019/10/23 04:14:34;;;;;;;33.6;28.2;;;;;;;12.47;100;962.2848;;;;
2019/10/23 04:16:59;;;;;;;35.8;28.3;;;;;;;12.29;100;962.1764;;;;
2019/10/23 04:19:24;;;;;;;37.8;29.1;;;;;;;12.2;100;962.1799;;;;
2019/10/23 04:21:49;;;;;;;36.2;28.8;;;;;;;12.37;100;962.2122;;;;
2019/10/23 04:24:14;;;;;;;37.6;30.4;;;;;;;12.24;100;962.2615;;;;
2019/10/23 04:26:39;;;;;;;38;30.5;;;;;;;12.19;100;962.3024;;;;
2019/10/23 04:29:04;;;;;;;39.5;30.6;;;;;;;12.14;100;962.3683;;;;
2019/10/23 04:31:30;;;;;;;38.8;30.6;;;;;;;12.23;100;962.3029;;;;
2019/10/23 04:33:55;;;;;;;38.7;31.2;;;;;;;12.32;100;962.2177;;;;
2019/10/23 04:36:20;;;;;;;38.2;30.2;;;;;;;12.24;100;962.1889;;;;
2019/10/23 04:38:45;;;;;;;40;31.2;;;;;;;12.2;100;962.1209;;;;
2019/10/23 04:41:10;;;;;;;38.5;30.9;;;;;;;12.06;100;962.038;;;;
2019/10/23 04:43:35;;;;;;;38;31.1;;;;;;;12.09;100;962.0377;;;;
2019/10/23 04:46:00;;;;;;;37.7;30.8;;;;;;;12.11;100;962.0591;;;;
2019/10/23 04:48:25;;;;;;;39.1;32.1;;;;;;;12.16;100;962.122;;;;
2019/10/23 04:50:50;;;;;;;40.5;32.2;;;;;;;11.99;100;962.1852;;;;
2019/10/23 04:53:15;;;;;;;42.6;33.8;;;;;;;11.9;100;962.1786;;;;
2019/10/23 04:55:41;;;;;;;43.6;34.4;;;;;;;11.93;100;962.2184;;;;
2019/10/23 04:58:06;;;;;;;40.4;33;;;;;;;12.01;100;962.1464;;;;
2019/10/23 05:00:31;;;;;;;38.6;31.9;;;;;;;12.04;100;962.1356;;;;
2019/10/23 05:02:56;;;;;;;40.7;32.8;;;;;;;12.16;100;962.0911;;;;
2019/10/23 05:05:22;;;;;;;40.7;33.5;;;;;;;11.92;100;962.0722;;;;
2019/10/23 05:07:47;;;;;;;41.5;34.1;;;;;;;12.01;100;961.9781;;;;
2019/10/23 05:10:13;;;;;;;40.8;33;;;;;;;12.03;100;961.928;;;;
2019/10/23 05:12:38;;;;;;;39.2;32.1;;;;;;;11.91;100;961.9659;;;;
2019/10/23 05:15:03;;;;;;;39.7;31.8;;;;;;;11.98;100;961.865;;;;
2019/10/23 05:17:28;;;;;;;44;34.8;;;;;;;11.88;100;961.8461;;;;
2019/10/23 05:19:53;;;;;;;43.3;34.3;;;;;;;11.98;100;961.9425;;;;
2019/10/23 05:22:18;;;;;;;40.5;33.1;;;;;;;12.08;100;961.9417;;;;
2019/10/23 05:24:43;;;;;;;40.8;33.2;;;;;;;12.04;100;961.9378;;;;
2019/10/23 05:27:08;;;;;;;44.2;35;;;;;;;11.92;100;961.9227;;;;
2019/10/23 05:29:33;;;;;;;44.7;35.2;;;;;;;11.96;100;961.9135;;;;
2019/10/23 05:31:59;;;;;;;44.4;35.7;;;;;;;11.89;100;962.0201;;;;
2019/10/23 05:34:24;;;;;;;43.7;34.4;;;;;;;11.86;100;962.0058;;;;
2019/10/23 05:36:49;;;;;;;44.8;35.9;;;;;;;11.85;100;962.0832;;;;
2019/10/23 05:39:15;;;;;;;47.8;36.1;;;;;;;11.77;100;961.9777;;;;
2019/10/23 05:41:40;;;;;;;47.3;36.3;;;;;;;11.74;100;961.9289;;;;
2019/10/23 05:44:05;;;;;;;41.6;33.7;;;;;;;11.87;100;961.8547;;;;
2019/10/23 05:46:30;;;;;;;46.8;35;;;;;;;11.85;100;961.8824;;;;
2019/10/23 05:48:55;;;;;;;43.4;33.8;;;;;;;11.83;100;961.9192;;;;
2019/10/23 05:51:20;;;;;;;41.6;33.3;;;;;;;11.9;100;961.9255;;;;
2019/10/23 05:53:46;;;;;;;42.8;34.3;;;;;;;11.83;100;961.8914;;;;
2019/10/23 05:56:11;;;;;;;46.6;34.6;;;;;;;11.73;100;961.8807;;;;
2019/10/23 05:58:36;;;;;;;44.5;34.3;;;;;;;11.83;100;961.9633;;;;
2019/10/23 06:01:01;;;;;;;38.2;31.1;;;;;;;11.92;100;961.9978;;;;
2019/10/23 06:03:27;;;;;;;40.9;32.8;;;;;;;11.7;100;961.9936;;;;
2019/10/23 06:05:52;;;;;;;41.1;32.5;;;;;;;11.81;100;961.8876;;;;
2019/10/23 06:08:17;;;;;;;39.1;31.6;;;;;;;11.79;100;961.9553;;;;
2019/10/23 06:10:42;;;;;;;41.6;33;;;;;;;11.81;100;961.926;;;;
2019/10/23 06:13:07;;;;;;;38.3;30.8;;;;;;;11.9;100;961.9402;;;;
2019/10/23 06:15:32;;;;;;;38.6;31.5;;;;;;;11.87;100;962.0115;;;;
2019/10/23 06:17:57;;;;;;;38.9;31.1;;;;;;;11.86;100;962.0139;;;;
2019/10/23 06:20:22;;;;;;;39.1;31.1;;;;;;;11.86;100;962.0008;;;;
2019/10/23 06:22:47;;;;;;;38.1;31.8;;;;;;;11.82;100;962.0122;;;;
2019/10/23 06:25:12;;;;;;;39.4;31.5;;;;;;;11.77;100;961.8855;;;;
2019/10/23 06:27:37;;;;;;;37.9;30.9;;;;;;;11.85;100;961.8909;;;;
2019/10/23 06:30:02;;;;;;;39.1;31.8;;;;;;;11.8;100;961.9235;;;;
2019/10/23 06:32:27;;;;;;;33.3;28.8;;;;;;;11.92;100;961.9252;;;;
2019/10/23 06:34:53;;;;;;;37.9;30.5;;;;;;;11.93;100;961.9864;;;;
2019/10/23 06:37:18;;;;;;;35.6;29.7;;;;;;;12;100;961.9805;;;;
2019/10/23 06:39:43;;;;;;;35.3;28.2;;;;;;;12.04;100;961.9933;;;;
2019/10/23 06:42:08;;;;;;;34.7;28.2;;;;;;;12.02;100;961.9839;;;;
2019/10/23 06:44:34;;;;;;;37.7;29.6;;;;;;;12.17;100;962.029;;;;
2019/10/23 06:46:59;;;;;;;35.8;29.4;;;;;;;12;100;961.9911;;;;
2019/10/23 06:49:24;;;;;;;31.7;26.8;;;;;;;12.11;100;962.0598;;;;
2019/10/23 06:51:49;;;;;;;33.6;27.7;;;;;;;12.21;100;962.1214;;;;
2019/10/23 06:54:14;;;;;;;31.5;27.1;;;;;;;12.14;100;962.075;;;;
2019/10/23 06:56:40;;;;;;;32.9;26.6;;;;;;;12.18;100;962.0792;;;;
2019/10/23 06:59:05;;;;;;;35.1;27.4;;;;;;;12.15;100;962.108;;;;
2019/10/23 07:01:31;;;;;;;31;25.9;;;;;;;12.07;100;962.1622;;;;
2019/10/23 07:03:56;;;;;;;32.6;26.7;;;;;;;12.07;100;962.1376;;;;
2019/10/23 07:06:21;;;;;;;29.2;25.9;;;;;;;11.98;100;962.1361;;;;
2019/10/23 07:08:47;;;;;;;28;24.4;;;;;;;12.16;100;962.0535;;;;
2019/10/23 07:11:12;;;;;;;30.3;25.5;;;;;;;12.12;100;962.0323;;;;
2019/10/23 07:13:37;;;;;;;28.6;25.3;;;;;;;12;100;962.0606;;;;
2019/10/23 07:16:03;;;;;;;29.8;24.3;;;;;;;11.97;100;962.0134;;;;
2019/10/23 07:18:28;;;;;;;28.3;23.7;;;;;;;12.05;100;962.0302;;;;
2019/10/23 07:20:53;;;;;;;26.1;23.3;;;;;;;11.97;100;962.0413;;;;
2019/10/23 07:23:18;;;;;;;29.4;23.2;;;;;;;11.94;100;962.0064;;;;
2019/10/23 07:25:43;;;;;;;27.3;23.1;;;;;;;12.07;100;962.0037;;;;
2019/10/23 07:28:08;;;;;;;28.3;23.3;;;;;;;11.97;100;962.0486;;;;
2019/10/23 07:30:34;;;;;;;25.5;22.4;;;;;;;12;100;962.166;;;;
2019/10/23 07:32:59;;;;;;;26.3;23.5;;;;;;;11.98;100;962.1279;;;;
2019/10/23 07:35:24;;;;;;;25.5;22.5;;;;;;;12.01;100;961.9716;;;;
2019/10/23 07:37:52;;;;;;;26.3;22.8;;;;;;;11.9;100;961.8201;;;;
2019/10/23 07:40:17;;;;;;;25.4;22.7;;;;;;;11.95;100;961.8016;;;;
2019/10/23 07:42:42;;;;;;;26.4;22.8;;;;;;;11.91;100;961.7642;;;;
2019/10/23 07:45:07;;;;;;;26.8;23.3;;;;;;;11.73;100;961.8178;;;;
2019/10/23 07:47:32;;;;;;;25.3;22.5;;;;;;;11.83;100;961.8759;;;;
2019/10/23 07:49:57;;;;;;;25.7;22.4;;;;;;;11.95;100;961.8865;;;;
2019/10/23 07:54:47;;;;;;;23.7;21.1;;;;;;;11.98;100;961.838;;;;
2019/10/23 07:57:13;;;;;;;24.2;21.5;;;;;;;12.01;100;961.8516;;;;
2019/10/23 07:59:38;;;;;;;24;21.4;;;;;;;12.08;100;961.8061;;;;
2019/10/23 08:02:03;;;;;;;24.3;21;;;;;;;12.09;99.47754;961.7991;;;;
2019/10/23 08:04:28;;;;;;;24.9;22.3;;;;;;;12.01;99.87402;961.7397;;;;
2019/10/23 08:06:53;;;;;;;24.8;20.7;;;;;;;11.98;99.90039;961.7023;;;;
2019/10/23 08:09:18;;;;;;;23.3;20.8;;;;;;;11.92;100;961.6384;;;;
2019/10/23 08:11:44;;;;;;;24.3;21.7;;;;;;;11.92;100;961.6376;;;;
2019/10/23 08:14:09;;;;;;;25.8;21.8;;;;;;;11.97;100;961.6451;;;;
2019/10/23 08:16:34;;;;;;;25;21.7;;;;;;;12.02;99.78418;961.6286;;;;
2019/10/23 08:19:00;;;;;;;23.2;20.7;;;;;;;11.98;99.38086;961.5953;;;;
2019/10/23 08:21:25;;;;;;;26.2;22.7;;;;;;;11.96;100;961.6309;;;;
2019/10/23 08:23:50;;;;;;;24.3;20.9;;;;;;;12.02;100;961.5281;;;;
2019/10/23 08:26:15;;;;;;;25.5;22.7;;;;;;;11.92;100;961.5756;;;;
2019/10/23 08:28:40;;;;;;;24;21.3;;;;;;;11.87;100;961.5223;;;;
2019/10/23 08:31:05;;;;;;;23.4;20.9;;;;;;;11.94;99.68457;961.5499;;;;
2019/10/23 08:33:31;;;;;;;23.1;20.6;;;;;;;12.06;99.58691;961.5756;;;;
2019/10/23 08:35:56;;;;;;;23.2;20.6;;;;;;;12.02;99.98047;961.5478;;;;
2019/10/23 08:38:21;;;;;;;23;20.6;;;;;;;12.15;99.15625;961.5363;;;;
2019/10/23 08:40:46;;;;;;;24;21.1;;;;;;;12.04;99.22266;961.4747;;;;
2019/10/23 08:43:11;;;;;;;25.5;21.2;;;;;;;12.06;99.01855;961.4825;;;;
2019/10/23 08:45:36;;;;;;;26.2;21.5;;;;;;;11.98;99.84277;961.5039;;;;
2019/10/23 08:48:02;;;;;;;25.1;21.4;;;;;;;11.95;100;961.4871;;;;
2019/10/23 08:50:27;;;;;;;25.2;21.5;;;;;;;12.02;100;961.4211;;;;
2019/10/23 08:52:53;;;;;;;24.4;21.4;;;;;;;12.08;100;961.4377;;;;
2019/10/23 08:55:21;;;;;;;24.1;21.2;;;;;;;12.06;99.54004;961.503;;;;
2019/10/23 08:57:46;;;;;;;23.7;20.7;;;;;;;12.19;99.84473;961.3929;;;;
2019/10/23 09:00:11;;;;;;;24.2;20.3;;;;;;;12.19;99.37305;961.3226;;;;
2019/10/23 09:02:36;;;;;;;20.4;18.2;;;;;;;12.21;98.39648;961.3468;;;;
2019/10/23 09:05:02;;;;;;;21.4;19.1;;;;;;;12.34;97.83398;961.3912;;;;
2019/10/23 09:07:27;;;;;;;22.2;19.4;;;;;;;12.38;97.1875;961.3892;;;;
2019/10/23 09:09:52;;;;;;;22.7;19.4;;;;;;;12.39;96.58594;961.3364;;;;
2019/10/23 09:12:17;;;;;;;21.5;19.1;;;;;;;12.35;97.2373;961.2768;;;;
2019/10/23 09:14:42;;;;;;;22.4;20;;;;;;;12.25;98.40527;961.2681;;;;
2019/10/23 09:17:08;;;;;;;20.9;18.3;;;;;;;12.33;97.77637;961.3372;;;;
2019/10/23 09:19:33;;;;;;;21.8;18.8;;;;;;;12.32;98.29395;961.3368;;;;
2019/10/23 09:21:58;;;;;;;21.3;19;;;;;;;12.37;97.34473;961.3025;;;;
2019/10/23 09:24:23;;;;;;;20.1;18;;;;;;;12.52;96.23242;961.3529;;;;
2019/10/23 09:26:48;;;;;;;22.4;20;;;;;;;12.52;96.55664;961.2369;;;;
2019/10/23 09:29:13;;;;;;;22.5;20.1;;;;;;;12.56;96.67188;961.149;;;;
2019/10/23 09:31:38;;;;;;;23;19.9;;;;;;;12.51;97.59473;961.1632;;;;
2019/10/23 09:34:03;;;;;;;22.2;19.2;;;;;;;12.46;97.16895;961.2156;;;;
2019/10/23 09:36:29;;;;;;;21.8;19.4;;;;;;;12.32;97.7373;961.1243;;;;
2019/10/23 09:38:54;;;;;;;22;19.6;;;;;;;12.25;98.48535;961.0344;;;;
2019/10/23 09:41:19;;;;;;;23.1;19.7;;;;;;;12.38;97.93652;961.0133;;;;
2019/10/23 09:43:44;;;;;;;20.8;18.7;;;;;;;12.52;97.19434;961.1404;;;;
2019/10/23 09:46:09;;;;;;;20.6;18.4;;;;;;;12.5;96.45996;961.1801;;;;
2019/10/23 09:48:34;;;;;;;22.4;18;;;;;;;12.49;96.48047;961.1294;;;;
2019/10/23 09:50:59;;;;;;;20.9;18.7;;;;;;;12.37;97.53906;961.0394;;;;
2019/10/23 09:53:24;;;;;;;21.2;18.2;;;;;;;12.6;94.77051;961.0672;;;;
2019/10/23 09:55:49;;;;;;;21;18.8;;;;;;;12.33;96.27344;960.9785;;;;
2019/10/23 09:58:15;;;;;;;22.7;19.2;;;;;;;12.26;96.84473;960.9714;;;;
2019/10/23 10:00:40;;;;;;;19.9;17.8;;;;;;;12.3;96.15234;960.9478;;;;
2019/10/23 10:03:05;;;;;;;19.5;17.4;;;;;;;12.41;96.34961;961.0472;;;;
2019/10/23 10:05:30;;;;;;;19;17;;;;;;;12.48;95.44043;961.0884;;;;
2019/10/23 10:07:55;;;;;;;19.3;17;;;;;;;12.65;94.73828;961.059;;;;
2019/10/23 10:10:20;;;;;;;18.8;16.8;;;;;;;12.46;94.81055;961.0399;;;;
2019/10/23 10:12:45;;;;;;;17.8;16;;;;;;;12.62;94.52148;960.9576;;;;
2019/10/23 10:15:10;;;;;;;18.8;16.9;;;;;;;12.64;94.31738;960.9515;;;;
2019/10/23 10:17:35;;;;;;;17.1;15.3;;;;;;;12.76;93.91504;960.9776;;;;
2019/10/23 10:20:00;;;;;;;17;15.2;;;;;;;12.95;93.32129;960.7901;;;;
2019/10/23 10:22:25;;;;;;;17.8;16;;;;;;;13.07;93.24023;960.6785;;;;
2019/10/23 10:24:51;;;;;;;18;16.1;;;;;;;13.16;91.86035;960.704;;;;
2019/10/23 10:27:16;;;;;;;18.7;16.8;;;;;;;13.2;91.49902;960.6719;;;;
2019/10/23 10:29:41;;;;;;;18.7;16.8;;;;;;;13.22;92.2207;960.7161;;;;
2019/10/23 10:32:06;;;;;;;19;17;;;;;;;13.14;92.67871;960.7271;;;;
2019/10/23 10:34:31;;;;;;;20.8;17.7;;;;;;;12.93;94.21973;960.6583;;;;
2019/10/23 10:36:56;;;;;;;20.5;18.4;;;;;;;12.94;94.58984;960.6314;;;;
2019/10/23 10:39:21;;;;;;;18.9;16.2;;;;;;;13.07;93.13965;960.6519;;;;
2019/10/23 10:41:46;;;;;;;17.9;16;;;;;;;13;92.27734;960.6271;;;;
2019/10/23 10:44:11;;;;;;;17.1;15.4;;;;;;;13.08;91.69434;960.6682;;;;
2019/10/23 10:46:36;;;;;;;17.7;15.9;;;;;;;13.17;90.61133;960.6758;;;;
2019/10/23 10:49:01;;;;;;;16.2;14.6;;;;;;;13.29;90.88086;960.575;;;;
2019/10/23 10:51:26;;;;;;;17.3;15.5;;;;;;;13.39;89.98633;960.5464;;;;
2019/10/23 10:53:52;;;;;;;17.2;15.5;;;;;;;13.45;90.60156;960.5224;;;;
2019/10/23 10:56:17;;;;;;;19.8;16.6;;;;;;;13.16;91.72266;960.4703;;;;
2019/10/23 10:58:42;;;;;;;18.1;16.3;;;;;;;13.21;91.55859;960.5092;;;;
2019/10/23 11:01:07;;;;;;;19.4;16.9;;;;;;;13.21;92.33496;960.4952;;;;
2019/10/23 11:03:32;;;;;;;18.8;16.3;;;;;;;13.25;92.11035;960.4537;;;;
2019/10/23 11:05:57;;;;;;;18.7;16.7;;;;;;;13.26;91.58203;960.397;;;;
2019/10/23 11:08:22;;;;;;;19.6;17.5;;;;;;;13.23;92.33789;960.3981;;;;
2019/10/23 11:10:47;;;;;;;17.3;15.4;;;;;;;13.48;90.89648;960.4163;;;;
2019/10/23 11:13:12;;;;;;;17.4;15.6;;;;;;;13.5;89.52344;960.4141;;;;
2019/10/23 11:15:37;;;;;;;17.6;15.7;;;;;;;13.39;91.78223;960.3663;;;;
2019/10/23 11:18:02;;;;;;;18;15.6;;;;;;;13.43;90.89746;960.3284;;;;
2019/10/23 11:20:29;;;;;;;18.5;16;;;;;;;13.58;90.7207;960.408;;;;
2019/10/23 11:22:54;;;;;;;20.1;16.2;;;;;;;13.42;91.47656;960.3191;;;;
2019/10/23 11:25:20;;;;;;;19.4;17;;;;;;;13.35;91.85352;960.294;;;;
2019/10/23 11:27:45;;;;;;;17.8;15.9;;;;;;;13.41;91.11133;960.3069;;;;
2019/10/23 11:30:10;;;;;;;17.6;15.7;;;;;;;13.46;91.52832;960.4045;;;;
2019/10/23 11:32:35;;;;;;;16.4;14.6;;;;;;;13.69;91.03223;960.3903;;;;
2019/10/23 11:35:00;;;;;;;16.8;15;;;;;;;13.59;90.16602;960.2946;;;;
2019/10/23 11:37:25;;;;;;;17;15.2;;;;;;;13.57;89.9209;960.2606;;;;
2019/10/23 11:39:50;;;;;;;16.5;14.8;;;;;;;13.55;91.09961;960.2361;;;;
2019/10/23 11:42:15;;;;;;;16.3;14.5;;;;;;;13.36;91.42676;960.1933;;;;
2019/10/23 11:44:41;;;;;;;16.4;14.7;;;;;;;13.4;90.40527;960.2296;;;;
2019/10/23 11:47:06;;;;;;;17;15.3;;;;;;;13.58;90.91797;960.1856;;;;
2019/10/23 11:49:31;;;;;;;17.2;15.3;;;;;;;13.66;90.95703;960.1451;;;;
2019/10/23 11:51:56;;;;;;;17.5;15.7;;;;;;;13.58;90.2334;960.1955;;;;
2019/10/23 11:54:21;;;;;;;16.4;14.7;;;;;;;13.61;90.37793;960.1375;;;;
2019/10/23 11:56:46;;;;;;;16.9;15.2;;;;;;;13.38;90.14453;960.0667;;;;
2019/10/23 11:59:11;;;;;;;16.2;14.5;;;;;;;13.28;90.42773;960.0836;;;;
2019/10/23 12:01:36;;;;;;;16.4;14.8;;;;;;;13.36;90.70996;960.0795;;;;
2019/10/23 12:04:01;;;;;;;15.6;14.1;;;;;;;13.55;89.75488;960.1052;;;;
2019/10/23 12:06:26;;;;;;;16.2;13.7;;;;;;;13.73;89.1875;960.0063;;;;
2019/10/23 12:08:51;;;;;;;17;15.2;;;;;;;13.68;90.23047;959.9562;;;;
2019/10/23 12:11:17;;;;;;;16.6;14.9;;;;;;;13.77;88.49902;959.9208;;;;
2019/10/23 12:13:42;;;;;;;16.3;14.8;;;;;;;13.83;89.61328;959.7722;;;;
2019/10/23 12:16:08;;;;;;;17.5;15.6;;;;;;;13.8;88.85352;959.785;;;;
2019/10/23 12:18:33;;;;;;;18.4;15.3;;;;;;;13.9;87.99121;959.8519;;;;
2019/10/23 12:20:58;;;;;;;18.4;16.5;;;;;;;13.67;89.31348;959.9428;;;;
2019/10/23 12:23:23;;;;;;;19.4;17.4;;;;;;;13.51;90.19531;959.8999;;;;
2019/10/23 12:25:48;;;;;;;19.1;17.1;;;;;;;13.68;90.21973;959.8473;;;;
2019/10/23 12:28:13;;;;;;;20.7;18.5;;;;;;;13.67;91.51758;959.668;;;;
2019/10/23 12:30:38;;;;;;;20.1;18;;;;;;;13.78;90.47168;959.7422;;;;
2019/10/23 12:33:05;;;;;;;20.3;18.2;;;;;;;13.71;89.50781;959.7427;;;;
2019/10/23 12:35:30;;;;;;;20.7;18.5;;;;;;;13.66;89.54297;959.7905;;;;
2019/10/23 12:37:55;;;;;;;20.6;18.6;;;;;;;13.54;90.45801;959.7068;;;;
2019/10/23 12:40:20;;;;;;;20.6;18.6;;;;;;;13.54;89.55371;959.6226;;;;
2019/10/23 12:42:45;;;;;;;22.2;20;;;;;;;13.43;90.75977;959.6039;;;;
2019/10/23 12:45:10;;;;;;;22.1;19.9;;;;;;;13.39;90.87793;959.51;;;;
2019/10/23 12:47:36;;;;;;;22.3;20;;;;;;;13.43;90.78125;959.5414;;;;
2019/10/23 12:50:01;;;;;;;22.6;20.3;;;;;;;13.44;91.63086;959.5441;;;;
2019/10/23 12:52:26;;;;;;;23.2;20.8;;;;;;;13.76;89.36816;959.4473;;;;
2019/10/23 12:54:51;;;;;;;23.9;21.3;;;;;;;13.83;89.19531;959.4363;;;;
2019/10/23 12:57:16;;;;;;;23.8;21.4;;;;;;;13.8;89.85156;959.4214;;;;
2019/10/23 12:59:41;;;;;;;23.9;21.4;;;;;;;13.66;90.60938;959.3318;;;;
2019/10/23 13:02:06;;;;;;;26.3;23;;;;;;;13.51;92.03809;959.2695;;;;
2019/10/23 13:04:31;;;;;;;25.6;23;;;;;;;13.34;92.19922;959.2148;;;;
2019/10/23 13:06:57;;;;;;;26.5;23.8;;;;;;;13.36;92.67969;959.2642;;;;
2019/10/23 13:09:22;;;;;;;26.4;23.6;;;;;;;13.38;91.66406;959.3333;;;;
2019/10/23 13:11:47;;;;;;;26.1;23.4;;;;;;;13.41;91.72949;959.3008;;;;
2019/10/23 13:14:12;;;;;;;26.2;23.5;;;;;;;13.37;91.4541;959.2302;;;;
2019/10/23 13:16:37;;;;;;;26.5;23.8;;;;;;;13.41;91.17188;959.1829;;;;
2019/10/23 13:19:02;;;;;;;26.1;23.5;;;;;;;13.29;91.25098;959.2188;;;;
2019/10/23 13:21:27;;;;;;;26.4;23.7;;;;;;;13.25;91.75195;959.2474;;;;
2019/10/23 13:23:52;;;;;;;26.9;24.1;;;;;;;13.03;92.8291;959.2072;;;;
2019/10/23 13:26:18;;;;;;;26.3;23.5;;;;;;;13.11;93.05273;959.1458;;;;
2019/10/23 13:28:43;;;;;;;24.2;21.8;;;;;;;13.32;91.59277;959.1519;;;;
2019/10/23 13:31:09;;;;;;;26.7;23.9;;;;;;;13.33;91.75488;959.1577;;;;
2019/10/23 13:33:34;;;;;;;27.1;24.3;;;;;;;13.18;93.37109;959.125;;;;
2019/10/23 13:35:59;;;;;;;26.7;24;;;;;;;13.3;92.39941;959.0772;;;;
2019/10/23 13:38:24;;;;;;;26.2;23.6;;;;;;;13.31;92.16992;958.9989;;;;
2019/10/23 13:40:49;;;;;;;26.9;23.8;;;;;;;13.26;93.17773;959.0451;;;;
2019/10/23 13:43:14;;;;;;;26.7;23.9;;;;;;;13.26;92.11426;959.0516;;;;
2019/10/23 13:45:39;;;;;;;27;24.1;;;;;;;13.13;93.41699;959.0856;;;;
2019/10/23 13:48:05;;;;;;;25.2;22.6;;;;;;;13.22;93.04297;959.0101;;;;
2019/10/23 13:50:30;;;;;;;24.7;22.2;;;;;;;13.27;92.39258;959.0229;;;;
2019/10/23 13:52:55;;;;;;;24.8;22.1;;;;;;;13.36;92.43457;958.9892;;;;
2019/10/23 13:55:20;;;;;;;25.4;22.4;;;;;;;13.36;92.3877;959.0629;;;;
2019/10/23 13:57:45;;;;;;;29.3;23.7;;;;;;;13.23;92.46582;959.0003;;;;
2019/10/23 14:00:10;;;;;;;24.2;21.8;;;;;;;13.26;92.5752;959.0574;;;;
2019/10/23 14:02:36;;;;;;;25.3;22.7;;;;;;;13.31;92.13574;959.0333;;;;
2019/10/23 14:05:01;;;;;;;24.2;21.6;;;;;;;13.54;90.88477;958.9832;;;;
2019/10/23 14:07:26;;;;;;;23.1;20.7;;;;;;;13.55;90.64551;958.9039;;;;
2019/10/23 14:09:51;;;;;;;26.5;23.3;;;;;;;13.44;91.21191;958.8663;;;;
2019/10/23 14:12:16;;;;;;;26.1;23.5;;;;;;;13.39;91.52734;958.8003;;;;
2019/10/23 14:14:41;;;;;;;24.9;22.3;;;;;;;13.42;91.59082;958.8284;;;;
2019/10/23 14:17:07;;;;;;;23.7;21.3;;;;;;;13.42;92.08887;958.8095;;;;
2019/10/23 14:19:32;;;;;;;23.9;21.4;;;;;;;13.23;92.1416;958.7147;;;;
2019/10/23 14:21:57;;;;;;;24;21.4;;;;;;;13.27;92.07031;958.748;;;;
2019/10/23 14:24:22;;;;;;;24.5;20.7;;;;;;;13.22;91.44434;958.7737;;;;
2019/10/23 14:26:47;;;;;;;22.8;20.4;;;;;;;13.27;91.58398;958.6939;;;;